sensor_id;sensor_type;location;lat;lon;timestamp;P1;durP1;ratioP1;P2;durP2;ratioP2
42760;SDS011;31672;47.638;19.026;2022-11-25T00:00:27;26.83;;;12.43;;
42760;SDS011;31672;47.638;19.026;2022-11-25T00:05:30;27.07;;;12.77;;
42760;SDS011;31672;47.638;19.026;2022-11-25T00:10:33;28.77;;;13.47;;
42760;SDS011;31672;47.638;19.026;2022-11-25T00:15:36;27.57;;;13.37;;
42760;SDS011;31672;47.638;19.026;2022-11-25T00:20:39;25.40;;;12.10;;
42760;SDS011;31672;47.638;19.026;2022-11-25T00:25:42;20.77;;;10.43;;
42760;SDS011;31672;47.638;19.026;2022-11-25T00:30:45;28.97;;;13.27;;
42760;SDS011;31672;47.638;19.026;2022-11-25T00:35:48;28.07;;;13.20;;
42760;SDS011;31672;47.638;19.026;2022-11-25T00:40:51;30.27;;;13.63;;
42760;SDS011;31672;47.638;19.026;2022-11-25T00:46:14;26.73;;;12.50;;
42760;SDS011;31672;47.638;19.026;2022-11-25T00:51:17;29.70;;;13.30;;
42760;SDS011;31672;47.638;19.026;2022-11-25T00:56:20;27.60;;;12.23;;
42760;SDS011;31672;47.638;19.026;2022-11-25T01:01:25;24.20;;;12.67;;
42760;SDS011;31672;47.638;19.026;2022-11-25T01:06:29;27.53;;;12.13;;
42760;SDS011;31672;47.638;19.026;2022-11-25T01:11:32;29.80;;;12.53;;
42760;SDS011;31672;47.638;19.026;2022-11-25T01:16:36;24.33;;;12.13;;
42760;SDS011;31672;47.638;19.026;2022-11-25T01:21:39;23.60;;;10.93;;
42760;SDS011;31672;47.638;19.026;2022-11-25T01:26:42;28.27;;;11.17;;
42760;SDS011;31672;47.638;19.026;2022-11-25T01:31:46;25.53;;;11.93;;
42760;SDS011;31672;47.638;19.026;2022-11-25T01:36:50;23.77;;;11.57;;
42760;SDS011;31672;47.638;19.026;2022-11-25T01:41:53;24.20;;;12.60;;
42760;SDS011;31672;47.638;19.026;2022-11-25T01:47:04;26.00;;;12.07;;
42760;SDS011;31672;47.638;19.026;2022-11-25T01:52:28;25.53;;;12.57;;
42760;SDS011;31672;47.638;19.026;2022-11-25T02:02:45;27.47;;;12.27;;
42760;SDS011;31672;47.638;19.026;2022-11-25T02:07:51;26.87;;;12.87;;
42760;SDS011;31672;47.638;19.026;2022-11-25T02:12:55;27.87;;;12.53;;
42760;SDS011;31672;47.638;19.026;2022-11-25T02:18:00;24.80;;;11.70;;
42760;SDS011;31672;47.638;19.026;2022-11-25T02:28:13;29.97;;;12.47;;
42760;SDS011;31672;47.638;19.026;2022-11-25T02:33:20;28.20;;;12.23;;
42760;SDS011;31672;47.638;19.026;2022-11-25T02:38:25;21.17;;;10.97;;
42760;SDS011;31672;47.638;19.026;2022-11-25T02:44:02;21.67;;;10.17;;
42760;SDS011;31672;47.638;19.026;2022-11-25T02:49:05;24.30;;;11.27;;
42760;SDS011;31672;47.638;19.026;2022-11-25T02:54:14;24.63;;;11.93;;
42760;SDS011;31672;47.638;19.026;2022-11-25T02:59:17;27.13;;;11.73;;
42760;SDS011;31672;47.638;19.026;2022-11-25T03:04:20;23.10;;;10.43;;
42760;SDS011;31672;47.638;19.026;2022-11-25T03:09:23;23.77;;;10.27;;
42760;SDS011;31672;47.638;19.026;2022-11-25T03:14:26;24.53;;;11.47;;
42760;SDS011;31672;47.638;19.026;2022-11-25T03:19:29;22.93;;;10.10;;
42760;SDS011;31672;47.638;19.026;2022-11-25T03:24:32;20.33;;;9.20;;
42760;SDS011;31672;47.638;19.026;2022-11-25T03:29:36;20.33;;;9.43;;
42760;SDS011;31672;47.638;19.026;2022-11-25T03:34:39;19.30;;;8.40;;
42760;SDS011;31672;47.638;19.026;2022-11-25T03:39:42;22.27;;;9.13;;
42760;SDS011;31672;47.638;19.026;2022-11-25T03:44:45;22.73;;;9.27;;
42760;SDS011;31672;47.638;19.026;2022-11-25T03:49:47;19.70;;;7.80;;
42760;SDS011;31672;47.638;19.026;2022-11-25T03:54:50;19.10;;;9.33;;
42760;SDS011;31672;47.638;19.026;2022-11-25T03:59:53;25.70;;;10.60;;
42760;SDS011;31672;47.638;19.026;2022-11-25T04:04:56;28.13;;;12.03;;
42760;SDS011;31672;47.638;19.026;2022-11-25T04:09:59;25.03;;;10.90;;
42760;SDS011;31672;47.638;19.026;2022-11-25T04:15:02;23.40;;;10.73;;
42760;SDS011;31672;47.638;19.026;2022-11-25T04:20:06;24.60;;;11.37;;
42760;SDS011;31672;47.638;19.026;2022-11-25T04:25:10;20.03;;;9.33;;
42760;SDS011;31672;47.638;19.026;2022-11-25T04:30:13;23.97;;;9.70;;
42760;SDS011;31672;47.638;19.026;2022-11-25T04:35:17;20.73;;;10.23;;
42760;SDS011;31672;47.638;19.026;2022-11-25T04:40:20;19.80;;;8.90;;
42760;SDS011;31672;47.638;19.026;2022-11-25T04:45:22;20.00;;;8.27;;
42760;SDS011;31672;47.638;19.026;2022-11-25T04:50:26;24.33;;;8.80;;
42760;SDS011;31672;47.638;19.026;2022-11-25T04:55:29;20.87;;;9.30;;
42760;SDS011;31672;47.638;19.026;2022-11-25T05:00:32;22.10;;;10.13;;
42760;SDS011;31672;47.638;19.026;2022-11-25T05:05:36;17.77;;;8.50;;
42760;SDS011;31672;47.638;19.026;2022-11-25T05:10:40;21.40;;;8.20;;
42760;SDS011;31672;47.638;19.026;2022-11-25T05:15:43;23.53;;;9.43;;
42760;SDS011;31672;47.638;19.026;2022-11-25T05:20:46;24.87;;;10.30;;
42760;SDS011;31672;47.638;19.026;2022-11-25T05:25:49;25.70;;;11.40;;
42760;SDS011;31672;47.638;19.026;2022-11-25T05:30:52;31.17;;;12.83;;
42760;SDS011;31672;47.638;19.026;2022-11-25T05:35:55;33.90;;;12.00;;
42760;SDS011;31672;47.638;19.026;2022-11-25T05:41:01;27.80;;;12.80;;
42760;SDS011;31672;47.638;19.026;2022-11-25T05:46:07;34.07;;;13.03;;
42760;SDS011;31672;47.638;19.026;2022-11-25T05:51:11;28.87;;;10.70;;
42760;SDS011;31672;47.638;19.026;2022-11-25T05:56:14;53.77;;;18.37;;
42760;SDS011;31672;47.638;19.026;2022-11-25T06:01:31;37.03;;;14.63;;
42760;SDS011;31672;47.638;19.026;2022-11-25T06:06:34;28.20;;;11.03;;
42760;SDS011;31672;47.638;19.026;2022-11-25T06:11:37;20.57;;;9.33;;
42760;SDS011;31672;47.638;19.026;2022-11-25T06:16:40;26.07;;;8.37;;
42760;SDS011;31672;47.638;19.026;2022-11-25T06:21:43;26.90;;;12.37;;
42760;SDS011;31672;47.638;19.026;2022-11-25T06:26:46;57.10;;;20.20;;
42760;SDS011;31672;47.638;19.026;2022-11-25T06:31:49;45.77;;;18.27;;
42760;SDS011;31672;47.638;19.026;2022-11-25T06:36:52;53.30;;;18.83;;
42760;SDS011;31672;47.638;19.026;2022-11-25T06:41:55;43.90;;;18.60;;
42760;SDS011;31672;47.638;19.026;2022-11-25T06:46:58;40.87;;;17.57;;
42760;SDS011;31672;47.638;19.026;2022-11-25T06:52:01;41.67;;;19.97;;
42760;SDS011;31672;47.638;19.026;2022-11-25T06:57:04;46.30;;;21.67;;
42760;SDS011;31672;47.638;19.026;2022-11-25T07:02:08;37.60;;;20.20;;
42760;SDS011;31672;47.638;19.026;2022-11-25T07:07:13;39.10;;;21.87;;
42760;SDS011;31672;47.638;19.026;2022-11-25T07:12:16;23.20;;;12.77;;
42760;SDS011;31672;47.638;19.026;2022-11-25T07:17:19;23.97;;;12.50;;
42760;SDS011;31672;47.638;19.026;2022-11-25T07:22:22;22.10;;;11.23;;
42760;SDS011;31672;47.638;19.026;2022-11-25T07:27:26;68.47;;;28.37;;
42760;SDS011;31672;47.638;19.026;2022-11-25T07:32:31;23.00;;;10.53;;
42760;SDS011;31672;47.638;19.026;2022-11-25T07:37:35;24.57;;;10.80;;
42760;SDS011;31672;47.638;19.026;2022-11-25T07:42:38;28.77;;;11.70;;
42760;SDS011;31672;47.638;19.026;2022-11-25T07:47:41;19.93;;;10.07;;
42760;SDS011;31672;47.638;19.026;2022-11-25T07:52:44;20.40;;;10.30;;
42760;SDS011;31672;47.638;19.026;2022-11-25T07:57:47;19.93;;;9.47;;
42760;SDS011;31672;47.638;19.026;2022-11-25T08:02:50;18.10;;;8.97;;
42760;SDS011;31672;47.638;19.026;2022-11-25T08:07:54;23.20;;;12.07;;
42760;SDS011;31672;47.638;19.026;2022-11-25T08:12:57;20.47;;;11.63;;
42760;SDS011;31672;47.638;19.026;2022-11-25T08:18:00;21.73;;;11.57;;
42760;SDS011;31672;47.638;19.026;2022-11-25T08:23:03;20.10;;;11.37;;
42760;SDS011;31672;47.638;19.026;2022-11-25T08:28:06;24.47;;;13.03;;
42760;SDS011;31672;47.638;19.026;2022-11-25T08:33:09;21.37;;;12.70;;
42760;SDS011;31672;47.638;19.026;2022-11-25T08:38:13;21.13;;;12.60;;
42760;SDS011;31672;47.638;19.026;2022-11-25T08:43:16;21.93;;;11.90;;
42760;SDS011;31672;47.638;19.026;2022-11-25T08:48:26;20.27;;;11.83;;
42760;SDS011;31672;47.638;19.026;2022-11-25T08:53:29;22.53;;;11.87;;
42760;SDS011;31672;47.638;19.026;2022-11-25T08:58:32;24.47;;;12.00;;
42760;SDS011;31672;47.638;19.026;2022-11-25T09:03:38;25.83;;;12.00;;
42760;SDS011;31672;47.638;19.026;2022-11-25T09:08:44;20.50;;;11.00;;
42760;SDS011;31672;47.638;19.026;2022-11-25T09:13:48;19.45;;;10.50;;
42760;SDS011;31672;47.638;19.026;2022-11-25T09:18:51;16.48;;;9.52;;
42760;SDS011;31672;47.638;19.026;2022-11-25T09:23:57;19.33;;;10.63;;
42760;SDS011;31672;47.638;19.026;2022-11-25T09:29:00;16.40;;;9.13;;
42760;SDS011;31672;47.638;19.026;2022-11-25T09:34:04;17.02;;;8.60;;
42760;SDS011;31672;47.638;19.026;2022-11-25T09:39:09;16.70;;;10.10;;
42760;SDS011;31672;47.638;19.026;2022-11-25T09:55:46;13.53;;;7.63;;
42760;SDS011;31672;47.638;19.026;2022-11-25T10:00:52;16.40;;;7.97;;
42760;SDS011;31672;47.638;19.026;2022-11-25T10:11:30;18.02;;;8.68;;
42760;SDS011;31672;47.638;19.026;2022-11-25T10:22:44;15.50;;;7.53;;
42760;SDS011;31672;47.638;19.026;2022-11-25T10:28:01;15.63;;;7.97;;
42760;SDS011;31672;47.638;19.026;2022-11-25T10:33:13;13.33;;;8.17;;
42760;SDS011;31672;47.638;19.026;2022-11-25T10:38:28;13.73;;;7.43;;
42760;SDS011;31672;47.638;19.026;2022-11-25T10:44:00;16.95;;;8.20;;
42760;SDS011;31672;47.638;19.026;2022-11-25T10:49:12;15.55;;;8.68;;
42760;SDS011;31672;47.638;19.026;2022-11-25T10:54:57;13.00;;;7.68;;
42760;SDS011;31672;47.638;19.026;2022-11-25T11:00:24;16.38;;;9.70;;
42760;SDS011;31672;47.638;19.026;2022-11-25T11:05:35;15.50;;;8.13;;
42760;SDS011;31672;47.638;19.026;2022-11-25T11:16:22;16.20;;;8.50;;
42760;SDS011;31672;47.638;19.026;2022-11-25T11:21:38;13.93;;;7.87;;
42760;SDS011;31672;47.638;19.026;2022-11-25T11:26:43;14.30;;;7.83;;
42760;SDS011;31672;47.638;19.026;2022-11-25T11:31:56;15.80;;;8.70;;
42760;SDS011;31672;47.638;19.026;2022-11-25T11:54:09;8.13;;;4.47;;
42760;SDS011;31672;47.638;19.026;2022-11-25T11:59:26;9.05;;;4.68;;
42760;SDS011;31672;47.638;19.026;2022-11-25T12:04:40;9.30;;;4.70;;
42760;SDS011;31672;47.638;19.026;2022-11-25T12:09:56;6.83;;;4.27;;
42760;SDS011;31672;47.638;19.026;2022-11-25T12:15:24;9.47;;;5.27;;
42760;SDS011;31672;47.638;19.026;2022-11-25T12:31:57;7.73;;;3.93;;
42760;SDS011;31672;47.638;19.026;2022-11-25T12:37:17;5.53;;;2.73;;
42760;SDS011;31672;47.638;19.026;2022-11-25T12:42:33;6.37;;;3.47;;
42760;SDS011;31672;47.638;19.026;2022-11-25T12:47:42;6.47;;;3.20;;
42760;SDS011;31672;47.638;19.026;2022-11-25T12:53:04;7.60;;;3.27;;
42760;SDS011;31672;47.638;19.026;2022-11-25T13:25:28;9.20;;;4.80;;
42760;SDS011;31672;47.638;19.026;2022-11-25T13:35:58;11.10;;;6.50;;
42760;SDS011;31672;47.638;19.026;2022-11-25T13:41:01;11.13;;;5.97;;
42760;SDS011;31672;47.638;19.026;2022-11-25T13:46:17;10.13;;;5.97;;
42760;SDS011;31672;47.638;19.026;2022-11-25T13:51:49;16.37;;;7.23;;
42760;SDS011;31672;47.638;19.026;2022-11-25T13:57:22;11.73;;;5.63;;
42760;SDS011;31672;47.638;19.026;2022-11-25T14:02:34;13.10;;;6.90;;
42760;SDS011;31672;47.638;19.026;2022-11-25T14:08:00;12.68;;;7.50;;
42760;SDS011;31672;47.638;19.026;2022-11-25T14:25:24;22.10;;;9.17;;
42760;SDS011;31672;47.638;19.026;2022-11-25T14:30:57;20.53;;;10.43;;
42760;SDS011;31672;47.638;19.026;2022-11-25T14:36:10;24.83;;;11.73;;
42760;SDS011;31672;47.638;19.026;2022-11-25T14:41:25;43.33;;;18.50;;
42760;SDS011;31672;47.638;19.026;2022-11-25T14:46:33;21.40;;;12.17;;
42760;SDS011;31672;47.638;19.026;2022-11-25T14:51:36;19.77;;;10.47;;
42760;SDS011;31672;47.638;19.026;2022-11-25T14:56:40;19.67;;;10.57;;
42760;SDS011;31672;47.638;19.026;2022-11-25T15:01:50;23.37;;;13.03;;
42760;SDS011;31672;47.638;19.026;2022-11-25T15:06:56;24.30;;;13.27;;
42760;SDS011;31672;47.638;19.026;2022-11-25T15:12:11;22.90;;;10.63;;
42760;SDS011;31672;47.638;19.026;2022-11-25T15:17:28;20.40;;;10.67;;
42760;SDS011;31672;47.638;19.026;2022-11-25T15:22:38;17.10;;;8.43;;
42760;SDS011;31672;47.638;19.026;2022-11-25T15:27:48;22.80;;;11.37;;
42760;SDS011;31672;47.638;19.026;2022-11-25T15:32:53;28.10;;;13.60;;
42760;SDS011;31672;47.638;19.026;2022-11-25T15:37:57;26.43;;;12.83;;
42760;SDS011;31672;47.638;19.026;2022-11-25T15:43:01;29.90;;;14.53;;
42760;SDS011;31672;47.638;19.026;2022-11-25T15:48:11;25.37;;;13.07;;
42760;SDS011;31672;47.638;19.026;2022-11-25T15:53:29;31.27;;;13.38;;
42760;SDS011;31672;47.638;19.026;2022-11-25T15:58:39;29.50;;;13.60;;
42760;SDS011;31672;47.638;19.026;2022-11-25T16:03:44;36.30;;;18.50;;
42760;SDS011;31672;47.638;19.026;2022-11-25T16:14:15;26.83;;;14.50;;
42760;SDS011;31672;47.638;19.026;2022-11-25T16:19:20;34.73;;;16.73;;
42760;SDS011;31672;47.638;19.026;2022-11-25T16:24:39;39.20;;;18.13;;
42760;SDS011;31672;47.638;19.026;2022-11-25T16:29:53;47.47;;;22.00;;
42760;SDS011;31672;47.638;19.026;2022-11-25T16:35:05;35.37;;;17.90;;
42760;SDS011;31672;47.638;19.026;2022-11-25T16:40:16;44.33;;;19.53;;
42760;SDS011;31672;47.638;19.026;2022-11-25T16:50:29;44.43;;;21.80;;
42760;SDS011;31672;47.638;19.026;2022-11-25T16:55:32;34.97;;;16.43;;
42760;SDS011;31672;47.638;19.026;2022-11-25T17:00:35;51.07;;;23.00;;
42760;SDS011;31672;47.638;19.026;2022-11-25T17:05:38;52.63;;;24.43;;
42760;SDS011;31672;47.638;19.026;2022-11-25T17:10:41;47.93;;;21.30;;
42760;SDS011;31672;47.638;19.026;2022-11-25T17:15:46;79.40;;;37.27;;
42760;SDS011;31672;47.638;19.026;2022-11-25T17:20:50;63.93;;;24.43;;
42760;SDS011;31672;47.638;19.026;2022-11-25T17:25:53;66.93;;;22.83;;
42760;SDS011;31672;47.638;19.026;2022-11-25T17:30:56;58.07;;;17.20;;
42760;SDS011;31672;47.638;19.026;2022-11-25T17:35:59;58.77;;;18.90;;
42760;SDS011;31672;47.638;19.026;2022-11-25T17:41:02;47.60;;;16.90;;
42760;SDS011;31672;47.638;19.026;2022-11-25T17:46:07;53.77;;;16.60;;
42760;SDS011;31672;47.638;19.026;2022-11-25T17:51:17;51.23;;;22.70;;
42760;SDS011;31672;47.638;19.026;2022-11-25T17:56:24;43.70;;;16.43;;
42760;SDS011;31672;47.638;19.026;2022-11-25T18:01:33;69.57;;;23.27;;
42760;SDS011;31672;47.638;19.026;2022-11-25T18:06:36;50.17;;;20.97;;
42760;SDS011;31672;47.638;19.026;2022-11-25T18:11:40;58.27;;;17.70;;
42760;SDS011;31672;47.638;19.026;2022-11-25T18:16:48;56.00;;;18.07;;
42760;SDS011;31672;47.638;19.026;2022-11-25T18:21:51;44.30;;;14.80;;
42760;SDS011;31672;47.638;19.026;2022-11-25T18:26:55;62.50;;;14.17;;
42760;SDS011;31672;47.638;19.026;2022-11-25T18:31:58;35.03;;;12.27;;
42760;SDS011;31672;47.638;19.026;2022-11-25T18:37:01;38.30;;;12.13;;
42760;SDS011;31672;47.638;19.026;2022-11-25T18:42:05;49.97;;;13.30;;
42760;SDS011;31672;47.638;19.026;2022-11-25T18:47:10;47.57;;;12.83;;
42760;SDS011;31672;47.638;19.026;2022-11-25T18:52:14;43.03;;;13.70;;
42760;SDS011;31672;47.638;19.026;2022-11-25T18:57:17;35.60;;;12.47;;
42760;SDS011;31672;47.638;19.026;2022-11-25T19:02:20;55.00;;;13.33;;
42760;SDS011;31672;47.638;19.026;2022-11-25T19:07:23;38.00;;;13.73;;
42760;SDS011;31672;47.638;19.026;2022-11-25T19:12:26;38.50;;;14.33;;
42760;SDS011;31672;47.638;19.026;2022-11-25T19:17:29;58.97;;;17.10;;
42760;SDS011;31672;47.638;19.026;2022-11-25T19:22:32;55.43;;;13.37;;
42760;SDS011;31672;47.638;19.026;2022-11-25T19:27:35;50.13;;;15.23;;
42760;SDS011;31672;47.638;19.026;2022-11-25T19:33:07;45.60;;;17.27;;
42760;SDS011;31672;47.638;19.026;2022-11-25T19:38:35;45.20;;;15.10;;
42760;SDS011;31672;47.638;19.026;2022-11-25T19:43:38;53.17;;;17.00;;
42760;SDS011;31672;47.638;19.026;2022-11-25T19:48:41;39.87;;;15.03;;
42760;SDS011;31672;47.638;19.026;2022-11-25T19:53:43;39.13;;;14.47;;
42760;SDS011;31672;47.638;19.026;2022-11-25T19:58:46;44.70;;;15.70;;
42760;SDS011;31672;47.638;19.026;2022-11-25T20:03:50;35.50;;;13.23;;
42760;SDS011;31672;47.638;19.026;2022-11-25T20:08:53;49.47;;;15.17;;
42760;SDS011;31672;47.638;19.026;2022-11-25T20:14:02;35.10;;;13.90;;
42760;SDS011;31672;47.638;19.026;2022-11-25T20:19:06;49.90;;;19.63;;
42760;SDS011;31672;47.638;19.026;2022-11-25T20:24:19;42.53;;;14.37;;
42760;SDS011;31672;47.638;19.026;2022-11-25T20:29:22;53.40;;;14.37;;
42760;SDS011;31672;47.638;19.026;2022-11-25T20:34:31;51.77;;;14.80;;
42760;SDS011;31672;47.638;19.026;2022-11-25T20:39:42;57.30;;;14.60;;
42760;SDS011;31672;47.638;19.026;2022-11-25T20:44:46;44.80;;;15.07;;
42760;SDS011;31672;47.638;19.026;2022-11-25T20:49:57;50.77;;;15.03;;
42760;SDS011;31672;47.638;19.026;2022-11-25T20:55:00;59.67;;;15.70;;
42760;SDS011;31672;47.638;19.026;2022-11-25T21:00:22;46.30;;;15.73;;
42760;SDS011;31672;47.638;19.026;2022-11-25T21:05:28;47.60;;;14.50;;
42760;SDS011;31672;47.638;19.026;2022-11-25T21:10:31;55.87;;;15.17;;
42760;SDS011;31672;47.638;19.026;2022-11-25T21:15:36;42.60;;;14.70;;
42760;SDS011;31672;47.638;19.026;2022-11-25T21:20:39;48.90;;;15.20;;
42760;SDS011;31672;47.638;19.026;2022-11-25T21:25:43;54.13;;;13.47;;
42760;SDS011;31672;47.638;19.026;2022-11-25T21:30:46;65.07;;;14.27;;
42760;SDS011;31672;47.638;19.026;2022-11-25T21:35:50;47.03;;;15.67;;
42760;SDS011;31672;47.638;19.026;2022-11-25T21:40:54;61.10;;;16.27;;
42760;SDS011;31672;47.638;19.026;2022-11-25T21:46:00;51.10;;;14.47;;
42760;SDS011;31672;47.638;19.026;2022-11-25T21:51:08;57.27;;;13.90;;
42760;SDS011;31672;47.638;19.026;2022-11-25T21:56:19;48.73;;;14.70;;
42760;SDS011;31672;47.638;19.026;2022-11-25T22:01:32;52.27;;;14.67;;
42760;SDS011;31672;47.638;19.026;2022-11-25T22:06:35;48.03;;;13.43;;
42760;SDS011;31672;47.638;19.026;2022-11-25T22:11:40;56.07;;;15.17;;
42760;SDS011;31672;47.638;19.026;2022-11-25T22:16:51;33.67;;;13.40;;
42760;SDS011;31672;47.638;19.026;2022-11-25T22:21:54;46.53;;;15.10;;
42760;SDS011;31672;47.638;19.026;2022-11-25T22:26:57;46.33;;;15.67;;
42760;SDS011;31672;47.638;19.026;2022-11-25T22:32:04;49.73;;;16.13;;
42760;SDS011;31672;47.638;19.026;2022-11-25T22:37:18;49.17;;;14.10;;
42760;SDS011;31672;47.638;19.026;2022-11-25T22:42:28;43.90;;;12.37;;
42760;SDS011;31672;47.638;19.026;2022-11-25T22:47:34;38.70;;;14.37;;
42760;SDS011;31672;47.638;19.026;2022-11-25T22:52:43;39.13;;;13.50;;
42760;SDS011;31672;47.638;19.026;2022-11-25T22:57:47;45.57;;;13.47;;
42760;SDS011;31672;47.638;19.026;2022-11-25T23:02:57;43.80;;;13.67;;
42760;SDS011;31672;47.638;19.026;2022-11-25T23:08:08;29.20;;;11.17;;
42760;SDS011;31672;47.638;19.026;2022-11-25T23:13:24;40.87;;;12.00;;
42760;SDS011;31672;47.638;19.026;2022-11-25T23:18:40;39.77;;;11.97;;
42760;SDS011;31672;47.638;19.026;2022-11-25T23:23:48;38.27;;;11.53;;
42760;SDS011;31672;47.638;19.026;2022-11-25T23:28:51;38.67;;;12.03;;
42760;SDS011;31672;47.638;19.026;2022-11-25T23:33:54;25.93;;;9.83;;
42760;SDS011;31672;47.638;19.026;2022-11-25T23:38:59;31.63;;;11.03;;
42760;SDS011;31672;47.638;19.026;2022-11-25T23:44:10;31.73;;;11.13;;
42760;SDS011;31672;47.638;19.026;2022-11-25T23:49:17;32.17;;;10.33;;
42760;SDS011;31672;47.638;19.026;2022-11-25T23:54:40;31.50;;;11.70;;
42760;SDS011;31672;47.638;19.026;2022-11-25T23:59:46;30.37;;;11.50;;
